sensor_id;sensor_type;location;lat;lon;timestamp;P1;durP1;ratioP1;P2;durP2;ratioP2
22015;SDS011;64992;51.698;-0.292;2023-12-29T00:01:52;19.98;;;7.50;;
22015;SDS011;64992;51.698;-0.292;2023-12-29T00:04:18;32.50;;;8.30;;
22015;SDS011;64992;51.698;-0.292;2023-12-29T00:06:44;25.33;;;6.93;;
22015;SDS011;64992;51.698;-0.292;2023-12-29T00:09:10;20.67;;;8.07;;
22015;SDS011;64992;51.698;-0.292;2023-12-29T00:11:37;35.72;;;7.35;;
22015;SDS011;64992;51.698;-0.292;2023-12-29T00:14:04;16.17;;;7.57;;
22015;SDS011;64992;51.698;-0.292;2023-12-29T00:16:30;25.02;;;6.28;;
22015;SDS011;64992;51.698;-0.292;2023-12-29T00:18:56;34.10;;;7.57;;
22015;SDS011;64992;51.698;-0.292;2023-12-29T00:21:22;29.88;;;7.78;;
22015;SDS011;64992;51.698;-0.292;2023-12-29T00:23:48;38.83;;;7.53;;
22015;SDS011;64992;51.698;-0.292;2023-12-29T00:26:17;18.45;;;7.57;;
22015;SDS011;64992;51.698;-0.292;2023-12-29T00:28:44;19.98;;;6.45;;
22015;SDS011;64992;51.698;-0.292;2023-12-29T00:31:16;37.58;;;7.90;;
22015;SDS011;64992;51.698;-0.292;2023-12-29T00:33:45;34.78;;;7.78;;
22015;SDS011;64992;51.698;-0.292;2023-12-29T00:36:14;26.20;;;8.02;;
22015;SDS011;64992;51.698;-0.292;2023-12-29T00:38:41;26.15;;;7.28;;
22015;SDS011;64992;51.698;-0.292;2023-12-29T00:41:07;19.45;;;6.40;;
22015;SDS011;64992;51.698;-0.292;2023-12-29T00:43:33;28.45;;;7.32;;
22015;SDS011;64992;51.698;-0.292;2023-12-29T00:46:01;22.67;;;7.05;;
22015;SDS011;64992;51.698;-0.292;2023-12-29T00:48:27;19.90;;;8.15;;
22015;SDS011;64992;51.698;-0.292;2023-12-29T00:50:53;23.80;;;8.55;;
22015;SDS011;64992;51.698;-0.292;2023-12-29T00:53:19;32.35;;;7.93;;
22015;SDS011;64992;51.698;-0.292;2023-12-29T00:55:45;29.95;;;7.63;;
22015;SDS011;64992;51.698;-0.292;2023-12-29T00:58:11;24.92;;;7.55;;
22015;SDS011;64992;51.698;-0.292;2023-12-29T01:00:37;18.98;;;6.95;;
22015;SDS011;64992;51.698;-0.292;2023-12-29T01:03:04;20.38;;;6.28;;
22015;SDS011;64992;51.698;-0.292;2023-12-29T01:05:30;21.88;;;7.95;;
22015;SDS011;64992;51.698;-0.292;2023-12-29T01:07:56;29.48;;;8.80;;
22015;SDS011;64992;51.698;-0.292;2023-12-29T01:10:22;16.40;;;7.70;;
22015;SDS011;64992;51.698;-0.292;2023-12-29T01:12:48;28.00;;;7.13;;
22015;SDS011;64992;51.698;-0.292;2023-12-29T01:15:15;34.85;;;8.77;;
22015;SDS011;64992;51.698;-0.292;2023-12-29T01:17:41;18.30;;;7.25;;
22015;SDS011;64992;51.698;-0.292;2023-12-29T01:20:07;21.02;;;8.07;;
22015;SDS011;64992;51.698;-0.292;2023-12-29T01:22:33;23.02;;;8.55;;
22015;SDS011;64992;51.698;-0.292;2023-12-29T01:24:59;28.58;;;7.93;;
22015;SDS011;64992;51.698;-0.292;2023-12-29T01:27:26;22.63;;;7.70;;
22015;SDS011;64992;51.698;-0.292;2023-12-29T01:29:52;19.00;;;7.60;;
22015;SDS011;64992;51.698;-0.292;2023-12-29T01:32:18;19.92;;;6.43;;
22015;SDS011;64992;51.698;-0.292;2023-12-29T01:34:44;29.85;;;6.57;;
22015;SDS011;64992;51.698;-0.292;2023-12-29T01:37:10;26.23;;;5.88;;
22015;SDS011;64992;51.698;-0.292;2023-12-29T01:39:36;30.33;;;6.13;;
22015;SDS011;64992;51.698;-0.292;2023-12-29T01:42:02;30.23;;;6.55;;
22015;SDS011;64992;51.698;-0.292;2023-12-29T01:44:29;19.73;;;6.20;;
22015;SDS011;64992;51.698;-0.292;2023-12-29T01:46:56;37.13;;;7.03;;
22015;SDS011;64992;51.698;-0.292;2023-12-29T01:49:23;15.70;;;6.13;;
22015;SDS011;64992;51.698;-0.292;2023-12-29T01:51:51;16.02;;;5.32;;
22015;SDS011;64992;51.698;-0.292;2023-12-29T01:54:18;20.80;;;6.32;;
22015;SDS011;64992;51.698;-0.292;2023-12-29T01:56:44;28.52;;;7.65;;
22015;SDS011;64992;51.698;-0.292;2023-12-29T01:59:11;16.63;;;5.72;;
22015;SDS011;64992;51.698;-0.292;2023-12-29T02:01:37;26.10;;;5.60;;
22015;SDS011;64992;51.698;-0.292;2023-12-29T02:04:06;17.13;;;5.93;;
22015;SDS011;64992;51.698;-0.292;2023-12-29T02:06:33;25.20;;;6.53;;
22015;SDS011;64992;51.698;-0.292;2023-12-29T02:09:01;13.60;;;6.47;;
22015;SDS011;64992;51.698;-0.292;2023-12-29T02:11:28;16.50;;;7.38;;
22015;SDS011;64992;51.698;-0.292;2023-12-29T02:13:54;16.67;;;7.00;;
22015;SDS011;64992;51.698;-0.292;2023-12-29T02:16:33;27.58;;;6.85;;
22015;SDS011;64992;51.698;-0.292;2023-12-29T02:18:59;32.35;;;7.07;;
22015;SDS011;64992;51.698;-0.292;2023-12-29T02:21:27;23.50;;;6.57;;
22015;SDS011;64992;51.698;-0.292;2023-12-29T02:23:53;36.10;;;8.18;;
22015;SDS011;64992;51.698;-0.292;2023-12-29T02:26:20;19.70;;;7.75;;
22015;SDS011;64992;51.698;-0.292;2023-12-29T02:28:48;34.42;;;7.10;;
22015;SDS011;64992;51.698;-0.292;2023-12-29T02:31:19;20.67;;;6.85;;
22015;SDS011;64992;51.698;-0.292;2023-12-29T02:33:46;29.85;;;8.60;;
22015;SDS011;64992;51.698;-0.292;2023-12-29T02:36:13;22.27;;;8.07;;
22015;SDS011;64992;51.698;-0.292;2023-12-29T02:38:40;38.15;;;8.38;;
22015;SDS011;64992;51.698;-0.292;2023-12-29T02:41:09;36.17;;;9.20;;
22015;SDS011;64992;51.698;-0.292;2023-12-29T02:43:36;15.38;;;7.60;;
22015;SDS011;64992;51.698;-0.292;2023-12-29T02:46:02;23.85;;;8.38;;
22015;SDS011;64992;51.698;-0.292;2023-12-29T02:48:28;19.85;;;6.72;;
22015;SDS011;64992;51.698;-0.292;2023-12-29T02:50:54;18.90;;;8.00;;
22015;SDS011;64992;51.698;-0.292;2023-12-29T02:53:20;24.15;;;8.07;;
22015;SDS011;64992;51.698;-0.292;2023-12-29T02:55:46;24.60;;;7.93;;
22015;SDS011;64992;51.698;-0.292;2023-12-29T02:58:12;21.38;;;6.88;;
22015;SDS011;64992;51.698;-0.292;2023-12-29T03:00:39;13.68;;;7.00;;
22015;SDS011;64992;51.698;-0.292;2023-12-29T03:03:05;41.83;;;8.40;;
22015;SDS011;64992;51.698;-0.292;2023-12-29T03:05:31;30.42;;;8.10;;
22015;SDS011;64992;51.698;-0.292;2023-12-29T03:07:57;27.65;;;8.10;;
22015;SDS011;64992;51.698;-0.292;2023-12-29T03:10:23;32.50;;;8.70;;
22015;SDS011;64992;51.698;-0.292;2023-12-29T03:12:49;18.40;;;7.43;;
22015;SDS011;64992;51.698;-0.292;2023-12-29T03:15:15;27.45;;;7.85;;
22015;SDS011;64992;51.698;-0.292;2023-12-29T03:17:41;26.58;;;8.20;;
22015;SDS011;64992;51.698;-0.292;2023-12-29T03:20:07;32.42;;;8.13;;
22015;SDS011;64992;51.698;-0.292;2023-12-29T03:22:33;25.58;;;8.30;;
22015;SDS011;64992;51.698;-0.292;2023-12-29T03:24:59;25.90;;;7.97;;
22015;SDS011;64992;51.698;-0.292;2023-12-29T03:27:25;14.32;;;5.47;;
22015;SDS011;64992;51.698;-0.292;2023-12-29T03:29:51;12.32;;;5.10;;
22015;SDS011;64992;51.698;-0.292;2023-12-29T03:32:17;19.70;;;6.38;;
22015;SDS011;64992;51.698;-0.292;2023-12-29T03:34:44;27.92;;;6.78;;
22015;SDS011;64992;51.698;-0.292;2023-12-29T03:37:10;20.50;;;8.00;;
22015;SDS011;64992;51.698;-0.292;2023-12-29T03:39:36;19.42;;;6.88;;
22015;SDS011;64992;51.698;-0.292;2023-12-29T03:42:03;15.48;;;6.70;;
22015;SDS011;64992;51.698;-0.292;2023-12-29T03:44:29;18.35;;;7.30;;
22015;SDS011;64992;51.698;-0.292;2023-12-29T03:46:55;13.65;;;5.72;;
22015;SDS011;64992;51.698;-0.292;2023-12-29T03:49:21;29.70;;;7.05;;
22015;SDS011;64992;51.698;-0.292;2023-12-29T03:51:47;33.42;;;6.70;;
22015;SDS011;64992;51.698;-0.292;2023-12-29T03:54:13;15.50;;;6.13;;
22015;SDS011;64992;51.698;-0.292;2023-12-29T03:56:39;24.08;;;7.90;;
22015;SDS011;64992;51.698;-0.292;2023-12-29T03:59:05;16.77;;;7.32;;
22015;SDS011;64992;51.698;-0.292;2023-12-29T04:01:32;15.98;;;6.82;;
22015;SDS011;64992;51.698;-0.292;2023-12-29T04:03:59;26.80;;;7.32;;
22015;SDS011;64992;51.698;-0.292;2023-12-29T04:06:25;19.83;;;7.22;;
22015;SDS011;64992;51.698;-0.292;2023-12-29T04:08:51;21.60;;;7.43;;
22015;SDS011;64992;51.698;-0.292;2023-12-29T04:11:17;24.08;;;6.95;;
22015;SDS011;64992;51.698;-0.292;2023-12-29T04:13:43;19.80;;;6.38;;
22015;SDS011;64992;51.698;-0.292;2023-12-29T04:16:09;16.27;;;7.53;;
22015;SDS011;64992;51.698;-0.292;2023-12-29T04:18:35;27.73;;;8.32;;
22015;SDS011;64992;51.698;-0.292;2023-12-29T04:21:01;16.58;;;7.38;;
22015;SDS011;64992;51.698;-0.292;2023-12-29T04:23:27;24.50;;;7.65;;
22015;SDS011;64992;51.698;-0.292;2023-12-29T04:25:53;22.88;;;8.60;;
22015;SDS011;64992;51.698;-0.292;2023-12-29T04:28:19;23.73;;;8.50;;
22015;SDS011;64992;51.698;-0.292;2023-12-29T04:30:45;30.73;;;7.72;;
22015;SDS011;64992;51.698;-0.292;2023-12-29T04:33:11;21.52;;;8.75;;
22015;SDS011;64992;51.698;-0.292;2023-12-29T04:35:37;21.48;;;7.78;;
22015;SDS011;64992;51.698;-0.292;2023-12-29T04:38:03;18.73;;;7.60;;
22015;SDS011;64992;51.698;-0.292;2023-12-29T04:40:31;19.23;;;7.75;;
22015;SDS011;64992;51.698;-0.292;2023-12-29T04:42:57;16.77;;;8.02;;
22015;SDS011;64992;51.698;-0.292;2023-12-29T04:45:23;17.92;;;7.18;;
22015;SDS011;64992;51.698;-0.292;2023-12-29T04:47:49;13.68;;;7.15;;
22015;SDS011;64992;51.698;-0.292;2023-12-29T04:50:15;14.25;;;7.53;;
22015;SDS011;64992;51.698;-0.292;2023-12-29T04:52:41;13.60;;;7.53;;
22015;SDS011;64992;51.698;-0.292;2023-12-29T04:55:07;23.75;;;9.02;;
22015;SDS011;64992;51.698;-0.292;2023-12-29T04:57:33;12.93;;;7.90;;
22015;SDS011;64992;51.698;-0.292;2023-12-29T04:59:59;18.70;;;7.15;;
22015;SDS011;64992;51.698;-0.292;2023-12-29T05:02:26;22.05;;;8.25;;
22015;SDS011;64992;51.698;-0.292;2023-12-29T05:04:52;20.42;;;8.15;;
22015;SDS011;64992;51.698;-0.292;2023-12-29T05:07:18;16.27;;;8.27;;
22015;SDS011;64992;51.698;-0.292;2023-12-29T05:09:44;10.77;;;5.72;;
22015;SDS011;64992;51.698;-0.292;2023-12-29T05:12:10;17.70;;;6.05;;
22015;SDS011;64992;51.698;-0.292;2023-12-29T05:14:36;9.48;;;5.95;;
22015;SDS011;64992;51.698;-0.292;2023-12-29T05:17:02;20.27;;;6.47;;
22015;SDS011;64992;51.698;-0.292;2023-12-29T05:19:28;11.60;;;6.22;;
22015;SDS011;64992;51.698;-0.292;2023-12-29T05:21:54;17.75;;;7.68;;
22015;SDS011;64992;51.698;-0.292;2023-12-29T05:24:20;19.08;;;8.25;;
22015;SDS011;64992;51.698;-0.292;2023-12-29T05:26:46;23.98;;;7.25;;
22015;SDS011;64992;51.698;-0.292;2023-12-29T05:29:13;12.40;;;6.97;;
22015;SDS011;64992;51.698;-0.292;2023-12-29T05:31:39;13.80;;;8.18;;
22015;SDS011;64992;51.698;-0.292;2023-12-29T05:34:05;29.00;;;8.00;;
22015;SDS011;64992;51.698;-0.292;2023-12-29T05:36:34;17.30;;;8.10;;
22015;SDS011;64992;51.698;-0.292;2023-12-29T05:39:01;22.42;;;8.98;;
22015;SDS011;64992;51.698;-0.292;2023-12-29T05:41:27;17.00;;;8.13;;
22015;SDS011;64992;51.698;-0.292;2023-12-29T05:43:53;10.35;;;7.45;;
22015;SDS011;64992;51.698;-0.292;2023-12-29T05:46:19;7.85;;;6.63;;
22015;SDS011;64992;51.698;-0.292;2023-12-29T05:48:46;17.92;;;8.32;;
22015;SDS011;64992;51.698;-0.292;2023-12-29T05:51:12;8.45;;;7.25;;
22015;SDS011;64992;51.698;-0.292;2023-12-29T05:53:39;12.77;;;7.20;;
22015;SDS011;64992;51.698;-0.292;2023-12-29T05:56:05;14.05;;;7.13;;
22015;SDS011;64992;51.698;-0.292;2023-12-29T05:58:31;11.23;;;7.03;;
22015;SDS011;64992;51.698;-0.292;2023-12-29T06:00:57;15.77;;;7.22;;
22015;SDS011;64992;51.698;-0.292;2023-12-29T06:03:26;18.45;;;7.47;;
22015;SDS011;64992;51.698;-0.292;2023-12-29T06:05:53;18.75;;;7.53;;
22015;SDS011;64992;51.698;-0.292;2023-12-29T06:08:19;15.38;;;6.82;;
22015;SDS011;64992;51.698;-0.292;2023-12-29T06:10:45;26.23;;;6.22;;
22015;SDS011;64992;51.698;-0.292;2023-12-29T06:13:11;7.93;;;5.28;;
22015;SDS011;64992;51.698;-0.292;2023-12-29T06:15:37;17.65;;;5.65;;
22015;SDS011;64992;51.698;-0.292;2023-12-29T06:18:04;10.85;;;5.70;;
22015;SDS011;64992;51.698;-0.292;2023-12-29T06:20:30;10.05;;;4.90;;
22015;SDS011;64992;51.698;-0.292;2023-12-29T06:22:56;12.98;;;5.47;;
22015;SDS011;64992;51.698;-0.292;2023-12-29T06:25:22;18.95;;;5.38;;
22015;SDS011;64992;51.698;-0.292;2023-12-29T06:27:48;8.05;;;4.60;;
22015;SDS011;64992;51.698;-0.292;2023-12-29T06:30:14;14.23;;;5.47;;
22015;SDS011;64992;51.698;-0.292;2023-12-29T06:32:40;12.68;;;5.13;;
22015;SDS011;64992;51.698;-0.292;2023-12-29T06:35:07;8.93;;;4.65;;
22015;SDS011;64992;51.698;-0.292;2023-12-29T06:37:35;16.92;;;6.05;;
22015;SDS011;64992;51.698;-0.292;2023-12-29T06:40:03;15.32;;;4.93;;
22015;SDS011;64992;51.698;-0.292;2023-12-29T06:42:29;14.65;;;5.07;;
22015;SDS011;64992;51.698;-0.292;2023-12-29T06:44:55;11.27;;;4.80;;
22015;SDS011;64992;51.698;-0.292;2023-12-29T06:47:21;10.60;;;4.65;;
22015;SDS011;64992;51.698;-0.292;2023-12-29T06:49:47;16.58;;;3.92;;
22015;SDS011;64992;51.698;-0.292;2023-12-29T06:52:15;5.40;;;3.38;;
22015;SDS011;64992;51.698;-0.292;2023-12-29T06:54:41;15.93;;;4.50;;
22015;SDS011;64992;51.698;-0.292;2023-12-29T06:57:07;9.45;;;4.57;;
22015;SDS011;64992;51.698;-0.292;2023-12-29T06:59:33;12.23;;;3.15;;
22015;SDS011;64992;51.698;-0.292;2023-12-29T07:01:59;13.68;;;3.88;;
22015;SDS011;64992;51.698;-0.292;2023-12-29T07:04:25;11.35;;;3.47;;
22015;SDS011;64992;51.698;-0.292;2023-12-29T07:06:51;8.85;;;3.78;;
22015;SDS011;64992;51.698;-0.292;2023-12-29T07:09:17;9.70;;;3.53;;
22015;SDS011;64992;51.698;-0.292;2023-12-29T07:11:52;18.58;;;4.40;;
22015;SDS011;64992;51.698;-0.292;2023-12-29T07:14:18;9.98;;;3.60;;
22015;SDS011;64992;51.698;-0.292;2023-12-29T07:16:44;9.95;;;4.05;;
22015;SDS011;64992;51.698;-0.292;2023-12-29T07:19:10;9.60;;;4.13;;
22015;SDS011;64992;51.698;-0.292;2023-12-29T07:21:36;16.33;;;5.03;;
22015;SDS011;64992;51.698;-0.292;2023-12-29T07:24:02;5.38;;;4.45;;
22015;SDS011;64992;51.698;-0.292;2023-12-29T07:26:28;20.65;;;5.35;;
22015;SDS011;64992;51.698;-0.292;2023-12-29T07:28:54;5.28;;;4.53;;
22015;SDS011;64992;51.698;-0.292;2023-12-29T07:31:22;8.13;;;5.28;;
22015;SDS011;64992;51.698;-0.292;2023-12-29T07:33:48;9.82;;;5.22;;
22015;SDS011;64992;51.698;-0.292;2023-12-29T07:36:14;11.77;;;6.63;;
22015;SDS011;64992;51.698;-0.292;2023-12-29T07:38:40;10.27;;;6.00;;
22015;SDS011;64992;51.698;-0.292;2023-12-29T07:41:07;15.32;;;6.85;;
22015;SDS011;64992;51.698;-0.292;2023-12-29T07:43:34;6.82;;;5.40;;
22015;SDS011;64992;51.698;-0.292;2023-12-29T07:46:01;14.02;;;6.47;;
22015;SDS011;64992;51.698;-0.292;2023-12-29T07:48:27;11.30;;;5.97;;
22015;SDS011;64992;51.698;-0.292;2023-12-29T07:50:53;14.50;;;6.97;;
22015;SDS011;64992;51.698;-0.292;2023-12-29T07:53:19;10.18;;;6.43;;
22015;SDS011;64992;51.698;-0.292;2023-12-29T07:55:45;10.55;;;6.97;;
22015;SDS011;64992;51.698;-0.292;2023-12-29T07:58:14;10.43;;;7.53;;
22015;SDS011;64992;51.698;-0.292;2023-12-29T08:00:40;8.75;;;6.78;;
22015;SDS011;64992;51.698;-0.292;2023-12-29T08:03:06;18.42;;;7.30;;
22015;SDS011;64992;51.698;-0.292;2023-12-29T08:05:32;8.27;;;7.40;;
22015;SDS011;64992;51.698;-0.292;2023-12-29T08:07:58;11.68;;;7.63;;
22015;SDS011;64992;51.698;-0.292;2023-12-29T08:10:24;8.23;;;7.22;;
22015;SDS011;64992;51.698;-0.292;2023-12-29T08:12:50;16.05;;;7.35;;
22015;SDS011;64992;51.698;-0.292;2023-12-29T08:15:17;16.85;;;7.47;;
22015;SDS011;64992;51.698;-0.292;2023-12-29T08:17:43;11.50;;;7.22;;
22015;SDS011;64992;51.698;-0.292;2023-12-29T08:20:09;24.85;;;8.40;;
22015;SDS011;64992;51.698;-0.292;2023-12-29T08:22:35;20.45;;;8.98;;
22015;SDS011;64992;51.698;-0.292;2023-12-29T08:25:02;23.55;;;9.60;;
22015;SDS011;64992;51.698;-0.292;2023-12-29T08:27:28;12.13;;;7.88;;
22015;SDS011;64992;51.698;-0.292;2023-12-29T08:29:54;19.38;;;8.57;;
22015;SDS011;64992;51.698;-0.292;2023-12-29T08:32:20;14.27;;;8.40;;
22015;SDS011;64992;51.698;-0.292;2023-12-29T08:34:47;13.05;;;8.38;;
22015;SDS011;64992;51.698;-0.292;2023-12-29T08:37:13;10.20;;;9.27;;
22015;SDS011;64992;51.698;-0.292;2023-12-29T08:39:45;14.65;;;8.30;;
22015;SDS011;64992;51.698;-0.292;2023-12-29T08:42:11;9.85;;;8.82;;
22015;SDS011;64992;51.698;-0.292;2023-12-29T08:44:37;11.18;;;9.32;;
22015;SDS011;64992;51.698;-0.292;2023-12-29T08:47:03;15.65;;;9.43;;
22015;SDS011;64992;51.698;-0.292;2023-12-29T08:49:33;10.80;;;9.57;;
22015;SDS011;64992;51.698;-0.292;2023-12-29T08:51:59;11.27;;;9.55;;
22015;SDS011;64992;51.698;-0.292;2023-12-29T08:54:25;13.45;;;8.60;;
22015;SDS011;64992;51.698;-0.292;2023-12-29T08:56:52;14.85;;;8.98;;
22015;SDS011;64992;51.698;-0.292;2023-12-29T08:59:18;12.05;;;8.73;;
22015;SDS011;64992;51.698;-0.292;2023-12-29T09:01:44;9.55;;;8.50;;
22015;SDS011;64992;51.698;-0.292;2023-12-29T09:04:10;16.63;;;8.73;;
22015;SDS011;64992;51.698;-0.292;2023-12-29T09:06:36;10.20;;;9.43;;
22015;SDS011;64992;51.698;-0.292;2023-12-29T09:09:02;10.48;;;8.95;;
22015;SDS011;64992;51.698;-0.292;2023-12-29T09:11:28;13.25;;;9.10;;
22015;SDS011;64992;51.698;-0.292;2023-12-29T09:13:54;9.02;;;8.23;;
22015;SDS011;64992;51.698;-0.292;2023-12-29T09:16:20;15.95;;;8.68;;
22015;SDS011;64992;51.698;-0.292;2023-12-29T09:18:46;14.90;;;8.63;;
22015;SDS011;64992;51.698;-0.292;2023-12-29T09:21:12;17.92;;;9.90;;
22015;SDS011;64992;51.698;-0.292;2023-12-29T09:23:38;12.60;;;8.90;;
22015;SDS011;64992;51.698;-0.292;2023-12-29T09:26:05;19.30;;;7.75;;
22015;SDS011;64992;51.698;-0.292;2023-12-29T09:28:32;10.75;;;8.82;;
22015;SDS011;64992;51.698;-0.292;2023-12-29T09:30:59;13.65;;;8.10;;
22015;SDS011;64992;51.698;-0.292;2023-12-29T09:33:25;13.68;;;8.93;;
22015;SDS011;64992;51.698;-0.292;2023-12-29T09:35:51;17.85;;;8.27;;
22015;SDS011;64992;51.698;-0.292;2023-12-29T09:38:18;16.75;;;8.77;;
22015;SDS011;64992;51.698;-0.292;2023-12-29T09:40:45;17.25;;;8.05;;
22015;SDS011;64992;51.698;-0.292;2023-12-29T09:43:11;13.00;;;8.38;;
22015;SDS011;64992;51.698;-0.292;2023-12-29T09:45:38;8.88;;;6.25;;
22015;SDS011;64992;51.698;-0.292;2023-12-29T09:48:08;11.30;;;6.85;;
22015;SDS011;64992;51.698;-0.292;2023-12-29T09:50:37;10.25;;;6.72;;
22015;SDS011;64992;51.698;-0.292;2023-12-29T09:53:03;16.88;;;6.85;;
22015;SDS011;64992;51.698;-0.292;2023-12-29T09:55:29;8.77;;;6.30;;
22015;SDS011;64992;51.698;-0.292;2023-12-29T09:57:56;15.43;;;7.30;;
22015;SDS011;64992;51.698;-0.292;2023-12-29T10:00:23;18.40;;;6.55;;
22015;SDS011;64992;51.698;-0.292;2023-12-29T10:02:50;8.48;;;6.80;;
22015;SDS011;64992;51.698;-0.292;2023-12-29T10:05:18;12.40;;;6.32;;
22015;SDS011;64992;51.698;-0.292;2023-12-29T10:07:44;18.73;;;6.95;;
22015;SDS011;64992;51.698;-0.292;2023-12-29T10:10:14;18.58;;;5.55;;
22015;SDS011;64992;51.698;-0.292;2023-12-29T10:12:41;12.48;;;4.93;;
22015;SDS011;64992;51.698;-0.292;2023-12-29T10:20:23;10.48;;;5.43;;
22015;SDS011;64992;51.698;-0.292;2023-12-29T10:25:26;5.50;;;5.10;;
22015;SDS011;64992;51.698;-0.292;2023-12-29T10:27:53;12.88;;;5.95;;
22015;SDS011;64992;51.698;-0.292;2023-12-29T10:30:19;10.00;;;4.60;;
22015;SDS011;64992;51.698;-0.292;2023-12-29T10:32:49;13.25;;;5.20;;
22015;SDS011;64992;51.698;-0.292;2023-12-29T10:35:15;14.27;;;5.85;;
22015;SDS011;64992;51.698;-0.292;2023-12-29T10:37:41;8.52;;;4.88;;
22015;SDS011;64992;51.698;-0.292;2023-12-29T10:40:07;23.85;;;6.57;;
22015;SDS011;64992;51.698;-0.292;2023-12-29T10:42:35;17.95;;;6.10;;
22015;SDS011;64992;51.698;-0.292;2023-12-29T10:45:04;7.25;;;6.05;;
22015;SDS011;64992;51.698;-0.292;2023-12-29T10:47:31;11.98;;;6.85;;
22015;SDS011;64992;51.698;-0.292;2023-12-29T10:50:01;11.98;;;6.95;;
22015;SDS011;64992;51.698;-0.292;2023-12-29T10:52:28;18.13;;;8.35;;
22015;SDS011;64992;51.698;-0.292;2023-12-29T10:55:08;16.60;;;9.00;;
22015;SDS011;64992;51.698;-0.292;2023-12-29T10:57:36;11.52;;;8.52;;
22015;SDS011;64992;51.698;-0.292;2023-12-29T11:00:02;19.77;;;9.10;;
22015;SDS011;64992;51.698;-0.292;2023-12-29T11:02:29;13.50;;;7.82;;
22015;SDS011;64992;51.698;-0.292;2023-12-29T11:05:02;9.68;;;7.15;;
22015;SDS011;64992;51.698;-0.292;2023-12-29T11:07:33;22.83;;;8.00;;
22015;SDS011;64992;51.698;-0.292;2023-12-29T11:10:03;24.42;;;8.85;;
22015;SDS011;64992;51.698;-0.292;2023-12-29T11:12:32;19.42;;;8.30;;
22015;SDS011;64992;51.698;-0.292;2023-12-29T11:14:59;15.43;;;7.78;;
22015;SDS011;64992;51.698;-0.292;2023-12-29T11:17:26;25.13;;;8.85;;
22015;SDS011;64992;51.698;-0.292;2023-12-29T11:19:53;20.77;;;9.27;;
22015;SDS011;64992;51.698;-0.292;2023-12-29T11:22:19;22.35;;;8.68;;
22015;SDS011;64992;51.698;-0.292;2023-12-29T11:24:46;24.50;;;8.63;;
22015;SDS011;64992;51.698;-0.292;2023-12-29T11:27:12;20.20;;;8.77;;
22015;SDS011;64992;51.698;-0.292;2023-12-29T11:29:39;16.58;;;8.57;;
22015;SDS011;64992;51.698;-0.292;2023-12-29T11:32:07;28.20;;;9.40;;
22015;SDS011;64992;51.698;-0.292;2023-12-29T11:34:37;31.92;;;10.30;;
22015;SDS011;64992;51.698;-0.292;2023-12-29T11:37:15;59.58;;;11.60;;
22015;SDS011;64992;51.698;-0.292;2023-12-29T11:39:49;21.50;;;10.40;;
22015;SDS011;64992;51.698;-0.292;2023-12-29T11:42:19;59.40;;;11.20;;
22015;SDS011;64992;51.698;-0.292;2023-12-29T11:44:47;19.33;;;10.70;;
22015;SDS011;64992;51.698;-0.292;2023-12-29T11:49:59;31.98;;;11.38;;
22015;SDS011;64992;51.698;-0.292;2023-12-29T11:52:32;20.92;;;10.82;;
22015;SDS011;64992;51.698;-0.292;2023-12-29T11:55:08;28.17;;;11.55;;
22015;SDS011;64992;51.698;-0.292;2023-12-29T11:57:35;24.48;;;10.75;;
22015;SDS011;64992;51.698;-0.292;2023-12-29T12:00:02;21.67;;;11.27;;
22015;SDS011;64992;51.698;-0.292;2023-12-29T12:02:31;16.05;;;10.73;;
22015;SDS011;64992;51.698;-0.292;2023-12-29T12:04:58;23.95;;;10.77;;
22015;SDS011;64992;51.698;-0.292;2023-12-29T12:09:50;26.98;;;10.88;;
22015;SDS011;64992;51.698;-0.292;2023-12-29T12:15:02;11.90;;;10.50;;
22015;SDS011;64992;51.698;-0.292;2023-12-29T12:19:58;14.55;;;10.98;;
22015;SDS011;64992;51.698;-0.292;2023-12-29T12:22:24;18.02;;;10.68;;
22015;SDS011;64992;51.698;-0.292;2023-12-29T12:25:00;14.93;;;10.70;;
22015;SDS011;64992;51.698;-0.292;2023-12-29T12:27:26;11.00;;;9.52;;
22015;SDS011;64992;51.698;-0.292;2023-12-29T12:29:53;21.92;;;9.88;;
22015;SDS011;64992;51.698;-0.292;2023-12-29T12:32:27;14.50;;;9.73;;
22015;SDS011;64992;51.698;-0.292;2023-12-29T12:34:54;15.48;;;9.85;;
22015;SDS011;64992;51.698;-0.292;2023-12-29T12:37:21;55.40;;;12.38;;
22015;SDS011;64992;51.698;-0.292;2023-12-29T12:39:47;5.88;;;5.38;;
22015;SDS011;64992;51.698;-0.292;2023-12-29T12:42:15;8.18;;;4.72;;
22015;SDS011;64992;51.698;-0.292;2023-12-29T12:44:42;5.10;;;4.60;;
22015;SDS011;64992;51.698;-0.292;2023-12-29T12:47:14;5.07;;;4.63;;
22015;SDS011;64992;51.698;-0.292;2023-12-29T12:49:41;6.40;;;5.80;;
22015;SDS011;64992;51.698;-0.292;2023-12-29T12:52:08;8.18;;;7.47;;
22015;SDS011;64992;51.698;-0.292;2023-12-29T12:54:34;8.35;;;7.70;;
22015;SDS011;64992;51.698;-0.292;2023-12-29T12:57:01;11.90;;;9.80;;
22015;SDS011;64992;51.698;-0.292;2023-12-29T12:59:27;13.13;;;10.02;;
22015;SDS011;64992;51.698;-0.292;2023-12-29T13:01:53;10.90;;;9.50;;
22015;SDS011;64992;51.698;-0.292;2023-12-29T13:04:20;10.48;;;9.55;;
22015;SDS011;64992;51.698;-0.292;2023-12-29T13:06:46;15.07;;;9.93;;
22015;SDS011;64992;51.698;-0.292;2023-12-29T13:09:12;14.30;;;11.27;;
22015;SDS011;64992;51.698;-0.292;2023-12-29T13:11:42;11.68;;;10.70;;
22015;SDS011;64992;51.698;-0.292;2023-12-29T13:14:09;11.90;;;10.90;;
22015;SDS011;64992;51.698;-0.292;2023-12-29T13:16:36;10.23;;;9.43;;
22015;SDS011;64992;51.698;-0.292;2023-12-29T13:19:22;13.95;;;12.82;;
22015;SDS011;64992;51.698;-0.292;2023-12-29T13:21:53;12.75;;;11.70;;
22015;SDS011;64992;51.698;-0.292;2023-12-29T13:24:24;12.52;;;11.82;;
22015;SDS011;64992;51.698;-0.292;2023-12-29T13:26:51;13.68;;;12.88;;
22015;SDS011;64992;51.698;-0.292;2023-12-29T13:29:21;15.68;;;14.57;;
22015;SDS011;64992;51.698;-0.292;2023-12-29T13:31:49;15.68;;;14.15;;
22015;SDS011;64992;51.698;-0.292;2023-12-29T13:34:21;14.40;;;13.50;;
22015;SDS011;64992;51.698;-0.292;2023-12-29T13:36:54;14.25;;;13.38;;
22015;SDS011;64992;51.698;-0.292;2023-12-29T13:41:52;14.65;;;13.48;;
22015;SDS011;64992;51.698;-0.292;2023-12-29T13:44:19;14.55;;;13.50;;
22015;SDS011;64992;51.698;-0.292;2023-12-29T13:46:47;14.50;;;13.68;;
22015;SDS011;64992;51.698;-0.292;2023-12-29T13:49:14;15.43;;;14.52;;
22015;SDS011;64992;51.698;-0.292;2023-12-29T13:51:41;15.80;;;14.75;;
22015;SDS011;64992;51.698;-0.292;2023-12-29T13:54:08;15.38;;;14.25;;
22015;SDS011;64992;51.698;-0.292;2023-12-29T13:56:34;14.35;;;13.55;;
22015;SDS011;64992;51.698;-0.292;2023-12-29T13:59:00;15.45;;;14.32;;
22015;SDS011;64992;51.698;-0.292;2023-12-29T14:01:36;16.35;;;15.02;;
22015;SDS011;64992;51.698;-0.292;2023-12-29T14:04:03;15.93;;;14.68;;
22015;SDS011;64992;51.698;-0.292;2023-12-29T14:06:48;16.27;;;14.57;;
22015;SDS011;64992;51.698;-0.292;2023-12-29T14:09:16;15.23;;;14.00;;
22015;SDS011;64992;51.698;-0.292;2023-12-29T14:11:48;16.10;;;14.68;;
22015;SDS011;64992;51.698;-0.292;2023-12-29T14:14:23;14.80;;;13.82;;
22015;SDS011;64992;51.698;-0.292;2023-12-29T14:16:52;14.75;;;13.57;;
22015;SDS011;64992;51.698;-0.292;2023-12-29T14:19:19;15.10;;;14.10;;
22015;SDS011;64992;51.698;-0.292;2023-12-29T14:21:52;15.70;;;14.70;;
22015;SDS011;64992;51.698;-0.292;2023-12-29T14:24:20;15.90;;;14.50;;
22015;SDS011;64992;51.698;-0.292;2023-12-29T14:29:19;14.90;;;13.63;;
22015;SDS011;64992;51.698;-0.292;2023-12-29T14:31:46;16.08;;;15.13;;
22015;SDS011;64992;51.698;-0.292;2023-12-29T14:34:13;17.40;;;16.20;;
22015;SDS011;64992;51.698;-0.292;2023-12-29T14:36:42;16.85;;;15.63;;
22015;SDS011;64992;51.698;-0.292;2023-12-29T14:39:09;16.80;;;15.70;;
22015;SDS011;64992;51.698;-0.292;2023-12-29T14:41:35;16.75;;;15.40;;
22015;SDS011;64992;51.698;-0.292;2023-12-29T14:44:02;16.30;;;15.20;;